createdAt,value
2018-05-27T01:30:22.698Z,0.00
2018-05-27T01:30:23.269Z,0.00
2018-05-27T01:30:23.870Z,0.00
2018-05-27T01:30:24.468Z,0.00
2018-05-27T01:30:25.071Z,0.00
2018-05-27T01:30:25.668Z,0.00
2018-05-27T01:30:26.267Z,0.00
2018-05-27T01:30:26.868Z,0.00
2018-05-27T01:31:21.373Z,0.00
2018-05-27T01:31:21.951Z,0.00
2018-05-27T01:31:22.545Z,0.00
2018-05-27T01:31:23.145Z,0.00
2018-05-27T01:31:23.745Z,0.00
2018-05-27T01:31:24.354Z,0.00
2018-05-27T01:31:24.943Z,0.00
2018-05-27T01:31:25.543Z,0.00
2018-05-27T01:32:19.115Z,0.00
2018-05-27T01:32:19.618Z,0.00
2018-05-27T01:32:20.220Z,0.00
2018-05-27T01:32:20.821Z,0.00
2018-05-27T01:32:21.421Z,0.00
2018-05-27T01:32:22.018Z,0.00
2018-05-27T01:32:22.617Z,0.00
2018-05-27T01:32:23.216Z,0.00
2018-05-27T01:33:16.789Z,0.00
2018-05-27T01:33:17.354Z,0.00
2018-05-27T01:33:17.955Z,0.00
2018-05-27T01:33:18.554Z,0.00
2018-05-27T01:33:19.158Z,0.00
2018-05-27T01:33:19.755Z,0.00
2018-05-27T01:33:20.355Z,0.00
2018-05-27T01:33:20.955Z,0.00
2018-05-27T01:34:15.455Z,0.00
2018-05-27T01:34:16.029Z,0.00
2018-05-27T01:34:16.630Z,0.00
2018-05-27T01:34:17.228Z,0.00
2018-05-27T01:34:17.828Z,0.00
2018-05-27T01:34:18.428Z,0.00
2018-05-27T01:34:19.028Z,0.00
2018-05-27T01:34:19.633Z,0.00
2018-05-27T01:35:14.132Z,0.00
2018-05-27T01:35:14.707Z,0.00
2018-05-27T01:35:15.306Z,0.00
2018-05-27T01:35:15.905Z,0.00
2018-05-27T01:35:16.505Z,0.00
2018-05-27T01:35:17.106Z,0.00
2018-05-27T01:35:17.707Z,0.00
2018-05-27T01:35:18.305Z,0.00
2018-05-27T01:36:11.787Z,0.00
2018-05-27T01:36:12.357Z,0.00
2018-05-27T01:36:12.956Z,0.00
2018-05-27T01:36:13.557Z,0.00
2018-05-27T01:36:14.163Z,0.00
2018-05-27T01:36:14.757Z,0.00
2018-05-27T01:36:15.356Z,0.00
2018-05-27T01:36:15.960Z,0.00
2018-05-27T01:37:10.462Z,0.00
2018-05-27T01:37:11.033Z,0.00
2018-05-27T01:37:11.636Z,0.00
2018-05-27T01:37:12.233Z,0.00
2018-05-27T01:37:12.832Z,0.00
2018-05-27T01:37:13.432Z,0.00
2018-05-27T01:37:14.033Z,0.00
2018-05-27T01:37:14.633Z,0.00
2018-05-27T01:38:09.137Z,0.00
2018-05-27T01:38:09.709Z,0.00
2018-05-27T01:38:10.309Z,0.00
2018-05-27T01:38:10.911Z,0.00
2018-05-27T01:38:11.509Z,0.00
2018-05-27T01:38:12.108Z,0.00
2018-05-27T01:38:12.708Z,0.00
2018-05-27T01:38:13.308Z,0.00
2018-05-27T01:39:06.794Z,0.00
2018-05-27T01:39:07.362Z,0.00
2018-05-27T01:39:07.961Z,0.00
2018-05-27T01:39:08.561Z,0.00
2018-05-27T01:39:09.172Z,0.00
2018-05-27T01:39:09.763Z,0.00
2018-05-27T01:39:10.360Z,0.00
2018-05-27T01:39:10.961Z,0.00
2018-05-27T01:40:05.465Z,0.00
2018-05-27T01:40:06.036Z,0.00
2018-05-27T01:40:06.637Z,0.00
2018-05-27T01:40:07.236Z,0.00
2018-05-27T01:40:07.836Z,0.00
2018-05-27T01:40:08.437Z,0.00
2018-05-27T01:40:09.036Z,0.00
2018-05-27T01:40:09.634Z,0.00
2018-05-27T01:41:03.117Z,0.00
2018-05-27T01:41:03.688Z,0.00
2018-05-27T01:41:04.290Z,0.00
2018-05-27T01:41:04.892Z,0.00
2018-05-27T01:41:05.490Z,0.00
2018-05-27T01:41:06.089Z,0.00
2018-05-27T01:41:06.689Z,0.00
2018-05-27T01:41:07.291Z,0.00
2018-05-27T01:42:01.793Z,0.00
2018-05-27T01:42:02.366Z,0.00
2018-05-27T01:42:02.966Z,0.00
2018-05-27T01:42:03.565Z,0.00
2018-05-27T01:42:04.164Z,0.00
2018-05-27T01:42:04.763Z,0.00
2018-05-27T01:42:05.365Z,0.00
2018-05-27T01:42:05.965Z,0.00
2018-05-27T01:43:00.468Z,0.00
2018-05-27T01:43:01.041Z,0.00
2018-05-27T01:43:01.640Z,0.00
2018-05-27T01:43:02.241Z,0.00
2018-05-27T01:43:02.841Z,0.00
2018-05-27T01:43:03.452Z,0.00
2018-05-27T01:43:04.039Z,0.00
2018-05-27T01:43:04.640Z,0.00
2018-05-27T01:43:58.120Z,0.00
2018-05-27T01:43:58.693Z,0.00
2018-05-27T01:43:59.292Z,0.00
2018-05-27T01:43:59.895Z,0.00
2018-05-27T01:44:00.493Z,0.00
2018-05-27T01:44:01.092Z,0.00
2018-05-27T01:44:01.693Z,0.00
2018-05-27T01:44:02.293Z,0.00
2018-05-27T01:44:56.796Z,0.00
2018-05-27T01:44:57.378Z,0.00
2018-05-27T01:44:57.968Z,0.00
2018-05-27T01:44:58.570Z,0.00
2018-05-27T01:44:59.168Z,0.00
2018-05-27T01:44:59.768Z,0.00
2018-05-27T01:45:00.368Z,0.00
2018-05-27T01:45:00.969Z,0.00
2018-05-27T01:45:55.473Z,0.00
2018-05-27T01:45:56.047Z,0.00
2018-05-27T01:45:56.643Z,0.00
2018-05-27T01:45:57.242Z,0.00
2018-05-27T01:45:57.844Z,0.00
2018-05-27T01:45:58.442Z,0.00
2018-05-27T01:45:59.043Z,0.00
2018-05-27T01:45:59.644Z,0.00
2018-05-27T01:46:53.125Z,0.00
2018-05-27T01:46:53.696Z,0.00
2018-05-27T01:46:54.296Z,0.00
2018-05-27T01:46:54.898Z,0.00
2018-05-27T01:46:55.496Z,0.00
2018-05-27T01:46:56.095Z,0.00
2018-05-27T01:46:56.695Z,0.00
2018-05-27T01:46:57.295Z,0.00
2018-05-27T01:47:50.775Z,0.00
2018-05-27T01:47:51.348Z,0.00
2018-05-27T01:47:51.948Z,0.00
2018-05-27T01:47:52.547Z,0.00
2018-05-27T01:47:53.150Z,0.00
2018-05-27T01:47:53.748Z,0.00
2018-05-27T01:47:54.348Z,0.00
2018-05-27T01:47:54.948Z,0.00
2018-05-27T01:48:48.428Z,0.00
2018-05-27T01:48:49.001Z,0.00
2018-05-27T01:48:49.602Z,0.00
2018-05-27T01:48:50.205Z,0.00
2018-05-27T01:48:50.800Z,0.00
2018-05-27T01:48:51.400Z,0.00
2018-05-27T01:48:51.999Z,0.00
2018-05-27T01:48:52.600Z,0.00
2018-05-27T01:49:47.104Z,0.00
2018-05-27T01:49:47.675Z,0.00
2018-05-27T01:49:48.274Z,0.00
2018-05-27T01:49:48.882Z,0.00
2018-05-27T01:49:49.474Z,0.00
2018-05-27T01:49:50.082Z,0.00
2018-05-27T01:49:50.675Z,0.00
2018-05-27T01:49:51.274Z,0.00
2018-05-27T01:50:45.782Z,0.00
2018-05-27T01:50:46.350Z,0.00
2018-05-27T01:50:46.950Z,0.00
2018-05-27T01:50:47.552Z,0.00
2018-05-27T01:50:48.151Z,0.00
2018-05-27T01:50:48.752Z,0.00
2018-05-27T01:50:49.351Z,0.00
2018-05-27T01:50:49.950Z,0.00
2018-05-27T01:51:44.455Z,0.00
2018-05-27T01:51:45.025Z,0.00
2018-05-27T01:51:45.626Z,0.00
2018-05-27T01:51:46.230Z,0.00
2018-05-27T01:51:46.825Z,0.00
2018-05-27T01:51:47.428Z,0.00
2018-05-27T01:51:48.028Z,0.00
2018-05-27T01:51:48.627Z,0.00
2018-05-27T01:52:42.107Z,0.00
2018-05-27T01:52:42.679Z,0.00
2018-05-27T01:52:43.285Z,0.00
2018-05-27T01:52:43.879Z,0.00
2018-05-27T01:52:44.479Z,0.00
2018-05-27T01:52:45.079Z,0.00
2018-05-27T01:52:45.682Z,0.00
2018-05-27T01:52:46.277Z,0.00
2018-05-27T01:53:40.782Z,0.00
2018-05-27T01:53:41.353Z,0.00
2018-05-27T01:53:41.953Z,0.00
2018-05-27T01:53:42.553Z,0.00
2018-05-27T01:53:43.153Z,0.00
2018-05-27T01:53:43.754Z,0.00
2018-05-27T01:53:44.354Z,0.00
2018-05-27T01:53:44.954Z,0.00
2018-05-27T01:54:38.435Z,0.00
2018-05-27T01:54:39.007Z,0.00
2018-05-27T01:54:39.606Z,0.00
2018-05-27T01:54:40.207Z,0.00
2018-05-27T01:54:40.806Z,0.00
2018-05-27T01:54:41.407Z,0.00
2018-05-27T01:54:42.008Z,0.00
2018-05-27T01:54:42.611Z,0.00
2018-05-27T01:55:37.109Z,0.00
2018-05-27T01:55:37.681Z,0.00
2018-05-27T01:55:38.281Z,0.00
2018-05-27T01:55:38.885Z,0.00
2018-05-27T01:55:39.482Z,0.00
2018-05-27T01:55:40.082Z,0.00
2018-05-27T01:55:40.683Z,0.00
2018-05-27T01:55:41.282Z,0.00
2018-05-27T01:56:34.762Z,0.00
2018-05-27T01:56:35.334Z,0.00
2018-05-27T01:56:35.934Z,0.00
2018-05-27T01:56:36.534Z,0.00
2018-05-27T01:56:37.138Z,0.00
2018-05-27T01:56:37.738Z,0.00
2018-05-27T01:56:38.333Z,0.00
2018-05-27T01:56:38.933Z,0.00
2018-05-27T01:57:33.452Z,0.00
2018-05-27T01:57:34.009Z,0.00
2018-05-27T01:57:34.610Z,0.00
2018-05-27T01:57:35.210Z,0.00
2018-05-27T01:57:35.809Z,0.00
2018-05-27T01:57:36.411Z,0.00
2018-05-27T01:57:37.008Z,0.00
2018-05-27T01:57:37.607Z,0.00
2018-05-27T01:58:31.089Z,0.00
2018-05-27T01:58:31.664Z,0.00
2018-05-27T01:58:32.262Z,0.00
2018-05-27T01:58:32.867Z,0.00
2018-05-27T01:58:33.462Z,0.00
2018-05-27T01:58:34.062Z,0.00
2018-05-27T01:58:34.662Z,0.00
2018-05-27T01:58:35.261Z,0.00
2018-05-27T01:59:29.764Z,0.00
2018-05-27T01:59:30.335Z,0.00
2018-05-27T01:59:30.935Z,0.00
2018-05-27T01:59:31.540Z,0.00
2018-05-27T01:59:32.136Z,0.00
2018-05-27T01:59:32.736Z,0.00
2018-05-27T01:59:33.339Z,0.00
2018-05-27T01:59:33.941Z,0.00
2018-05-27T02:00:28.439Z,0.00
2018-05-27T02:00:29.012Z,0.00
2018-05-27T02:00:29.612Z,0.00
2018-05-27T02:00:30.215Z,0.00
2018-05-27T02:00:30.813Z,0.00
2018-05-27T02:00:31.413Z,0.00
2018-05-27T02:00:32.011Z,0.00
2018-05-27T02:00:32.612Z,0.00
2018-05-27T02:01:27.117Z,0.00
2018-05-27T02:01:27.689Z,0.00
2018-05-27T02:01:28.288Z,0.00
2018-05-27T02:01:28.891Z,0.00
2018-05-27T02:01:29.491Z,0.00
2018-05-27T02:01:30.089Z,0.00
2018-05-27T02:01:30.692Z,0.00
2018-05-27T02:01:31.287Z,0.00
2018-05-27T02:02:24.770Z,0.00
2018-05-27T02:02:25.340Z,0.00
2018-05-27T02:02:25.939Z,0.00
2018-05-27T02:02:26.544Z,0.00
2018-05-27T02:02:27.139Z,0.00
2018-05-27T02:02:27.745Z,0.00
2018-05-27T02:02:28.340Z,0.00
2018-05-27T02:02:28.944Z,0.00
2018-05-27T02:03:23.443Z,0.00
2018-05-27T02:03:24.024Z,0.00
2018-05-27T02:03:24.614Z,0.00
2018-05-27T02:03:25.219Z,0.00
2018-05-27T02:03:25.815Z,0.00
2018-05-27T02:03:26.415Z,0.00
2018-05-27T02:03:27.015Z,0.00
2018-05-27T02:03:27.615Z,0.00
2018-05-27T02:04:22.118Z,0.00
2018-05-27T02:04:22.691Z,0.00
2018-05-27T02:04:23.291Z,0.00
2018-05-27T02:04:23.893Z,0.00
2018-05-27T02:04:24.490Z,0.00
2018-05-27T02:04:25.091Z,0.00
2018-05-27T02:04:25.691Z,0.00
2018-05-27T02:04:26.291Z,0.00
2018-05-27T02:05:20.803Z,0.00
2018-05-27T02:05:21.368Z,0.00
2018-05-27T02:05:21.967Z,0.00
2018-05-27T02:05:22.569Z,0.00
2018-05-27T02:05:23.167Z,0.00
2018-05-27T02:05:23.766Z,0.00
2018-05-27T02:05:24.367Z,0.00
2018-05-27T02:05:24.967Z,0.00
2018-05-27T02:06:19.487Z,0.00
2018-05-27T02:06:20.043Z,0.00
2018-05-27T02:06:20.643Z,0.00
2018-05-27T02:06:21.242Z,0.00
2018-05-27T02:06:21.844Z,0.00
2018-05-27T02:06:22.442Z,0.00
2018-05-27T02:06:23.041Z,0.00
2018-05-27T02:06:23.642Z,0.00
2018-05-27T02:07:18.145Z,0.00
2018-05-27T02:07:18.719Z,0.00
2018-05-27T02:07:19.322Z,0.00
2018-05-27T02:07:19.925Z,0.00
2018-05-27T02:07:20.518Z,0.00
2018-05-27T02:07:21.117Z,0.00
2018-05-27T02:07:21.716Z,0.00
2018-05-27T02:07:22.317Z,0.00
2018-05-27T02:08:16.821Z,0.00
2018-05-27T02:08:17.393Z,0.00
2018-05-27T02:08:17.995Z,0.00
2018-05-27T02:08:18.597Z,0.00
2018-05-27T02:08:19.193Z,0.00
2018-05-27T02:08:19.794Z,0.00
2018-05-27T02:08:20.393Z,0.00
2018-05-27T02:08:20.993Z,0.00
2018-05-27T02:09:14.472Z,0.00
2018-05-27T02:09:15.047Z,0.00
2018-05-27T02:09:15.646Z,0.00
2018-05-27T02:09:16.249Z,0.00
2018-05-27T02:09:16.849Z,0.00
2018-05-27T02:09:17.447Z,0.00
2018-05-27T02:09:18.046Z,0.00
2018-05-27T02:09:18.646Z,0.00
2018-05-27T02:10:13.149Z,0.00
2018-05-27T02:10:13.721Z,0.00
2018-05-27T02:10:14.321Z,0.00
2018-05-27T02:10:14.926Z,0.00
2018-05-27T02:10:15.521Z,0.00
2018-05-27T02:10:16.120Z,0.00
2018-05-27T02:10:16.721Z,0.00
2018-05-27T02:10:17.321Z,0.00
2018-05-27T02:11:10.801Z,0.00
2018-05-27T02:11:11.373Z,0.00
2018-05-27T02:11:11.974Z,0.00
2018-05-27T02:11:12.576Z,0.00
2018-05-27T02:11:13.174Z,0.00
2018-05-27T02:11:13.775Z,0.00
2018-05-27T02:11:14.373Z,0.00
2018-05-27T02:11:14.973Z,0.00
2018-05-27T02:12:09.477Z,0.00
2018-05-27T02:12:10.049Z,0.00
2018-05-27T02:12:10.649Z,0.00
2018-05-27T02:12:11.252Z,0.00
2018-05-27T02:12:11.848Z,0.00
2018-05-27T02:12:12.448Z,0.00
2018-05-27T02:12:13.048Z,0.00
2018-05-27T02:12:13.649Z,0.00
2018-05-27T02:13:08.153Z,0.00
2018-05-27T02:13:08.724Z,0.00
2018-05-27T02:13:09.326Z,0.00
2018-05-27T02:13:09.930Z,0.00
2018-05-27T02:13:10.524Z,0.00
2018-05-27T02:13:11.125Z,0.00
2018-05-27T02:13:11.724Z,0.00
2018-05-27T02:13:12.324Z,0.00
2018-05-27T02:14:06.829Z,0.00
2018-05-27T02:14:07.408Z,0.00
2018-05-27T02:14:08.001Z,0.00
2018-05-27T02:14:08.608Z,0.00
2018-05-27T02:14:09.202Z,0.00
2018-05-27T02:14:09.819Z,0.00
2018-05-27T02:14:10.398Z,0.00
2018-05-27T02:14:10.998Z,0.00
2018-05-27T02:15:04.480Z,0.00
2018-05-27T02:15:05.056Z,0.00
2018-05-27T02:15:05.652Z,0.00
2018-05-27T02:15:06.255Z,0.00
2018-05-27T02:15:06.852Z,0.00
2018-05-27T02:15:07.451Z,0.00
2018-05-27T02:15:08.060Z,0.00
2018-05-27T02:15:08.652Z,0.00
2018-05-27T02:16:02.132Z,0.00
2018-05-27T02:16:02.704Z,0.00
2018-05-27T02:16:03.304Z,0.00
2018-05-27T02:16:03.908Z,0.00
2018-05-27T02:16:04.503Z,0.00
2018-05-27T02:16:05.103Z,0.00
2018-05-27T02:16:05.704Z,0.00
2018-05-27T02:16:06.304Z,0.00
2018-05-27T02:16:59.785Z,0.00
2018-05-27T02:17:00.357Z,0.00
2018-05-27T02:17:00.956Z,0.00
2018-05-27T02:17:01.559Z,0.00
2018-05-27T02:17:02.163Z,0.00
2018-05-27T02:17:02.756Z,0.00
2018-05-27T02:17:03.355Z,0.00
2018-05-27T02:17:03.955Z,0.00
2018-05-27T02:17:57.436Z,0.00
2018-05-27T02:17:58.008Z,0.00
2018-05-27T02:17:58.607Z,0.00
2018-05-27T02:17:59.214Z,0.00
2018-05-27T02:17:59.806Z,0.00
2018-05-27T02:18:00.405Z,0.00
2018-05-27T02:18:01.006Z,0.00
2018-05-27T02:18:01.605Z,0.00
2018-05-27T02:18:56.110Z,0.00
2018-05-27T02:18:56.682Z,0.00
2018-05-27T02:18:57.291Z,0.00
2018-05-27T02:18:57.883Z,0.00
2018-05-27T02:18:58.482Z,0.00
2018-05-27T02:18:59.082Z,0.00
2018-05-27T02:18:59.684Z,0.00
2018-05-27T02:19:00.283Z,0.00
2018-05-27T02:19:53.762Z,0.00
2018-05-27T02:19:54.336Z,0.00
2018-05-27T02:19:54.935Z,0.00
2018-05-27T02:19:55.537Z,0.00
2018-05-27T02:19:56.140Z,0.00
2018-05-27T02:19:56.736Z,0.00
2018-05-27T02:19:57.336Z,0.00
2018-05-27T02:19:57.934Z,0.00
2018-05-27T02:20:52.438Z,0.00
2018-05-27T02:20:53.009Z,0.00
2018-05-27T02:20:53.610Z,0.00
2018-05-27T02:20:54.223Z,0.00
2018-05-27T02:20:54.810Z,0.00
2018-05-27T02:20:55.410Z,0.00
2018-05-27T02:20:56.011Z,0.00
2018-05-27T02:20:56.609Z,0.00
2018-05-27T02:21:50.091Z,4.00
2018-05-27T02:21:50.663Z,4.00
2018-05-27T02:21:51.263Z,4.00
2018-05-27T02:21:51.865Z,4.00
2018-05-27T02:21:52.462Z,4.00
2018-05-27T02:21:53.063Z,4.00
2018-05-27T02:21:53.662Z,4.00
2018-05-27T02:21:54.262Z,4.00
2018-05-27T02:22:47.742Z,4.00
2018-05-27T02:22:48.314Z,4.00
2018-05-27T02:22:48.915Z,4.00
2018-05-27T02:22:49.517Z,4.00
2018-05-27T02:22:50.115Z,4.00
2018-05-27T02:22:50.713Z,4.00
2018-05-27T02:22:51.314Z,4.00
2018-05-27T02:22:51.914Z,4.00
2018-05-27T02:23:45.393Z,4.00
2018-05-27T02:23:45.966Z,4.00
2018-05-27T02:23:46.565Z,4.00
2018-05-27T02:23:47.169Z,4.00
2018-05-27T02:23:47.766Z,4.00
2018-05-27T02:23:48.365Z,4.00
2018-05-27T02:23:48.968Z,4.00
2018-05-27T02:23:49.567Z,4.00
2018-05-27T02:24:44.069Z,0.00
2018-05-27T02:24:44.641Z,4.00
2018-05-27T02:24:45.242Z,0.00
2018-05-27T02:24:45.845Z,0.00
2018-05-27T02:24:46.440Z,4.00
2018-05-27T02:24:47.041Z,0.00
2018-05-27T02:24:47.641Z,0.00
2018-05-27T02:24:48.241Z,0.00
2018-05-27T02:25:41.720Z,0.00
2018-05-27T02:25:42.294Z,0.00
2018-05-27T02:25:42.894Z,0.00
2018-05-27T02:25:43.496Z,0.00
2018-05-27T02:25:44.095Z,0.00
2018-05-27T02:25:44.696Z,0.00
2018-05-27T02:25:45.292Z,0.00
2018-05-27T02:25:45.893Z,0.00
2018-05-27T02:26:40.398Z,0.00
2018-05-27T02:26:40.968Z,0.00
2018-05-27T02:26:41.576Z,0.00
2018-05-27T02:26:42.171Z,0.00
2018-05-27T02:26:42.769Z,0.00
2018-05-27T02:26:43.367Z,0.00
2018-05-27T02:26:43.968Z,0.00
2018-05-27T02:26:44.568Z,0.00
2018-05-27T02:27:38.049Z,4.00
2018-05-27T02:27:38.621Z,4.00
2018-05-27T02:27:39.221Z,4.00
2018-05-27T02:27:39.825Z,4.00
2018-05-27T02:27:40.421Z,4.00
2018-05-27T02:27:41.020Z,4.00
2018-05-27T02:27:41.621Z,4.00
2018-05-27T02:27:42.220Z,4.00
2018-05-27T02:28:36.723Z,4.00
2018-05-27T02:28:37.296Z,4.00
2018-05-27T02:28:37.896Z,4.00
2018-05-27T02:28:38.497Z,4.00
2018-05-27T02:28:39.096Z,4.00
2018-05-27T02:28:39.696Z,4.00
2018-05-27T02:28:40.295Z,4.00
2018-05-27T02:28:40.896Z,4.00
2018-05-27T02:29:35.400Z,4.00
2018-05-27T02:29:35.972Z,4.00
2018-05-27T02:29:36.571Z,4.00
2018-05-27T02:29:37.174Z,4.00
2018-05-27T02:29:37.775Z,4.00
2018-05-27T02:29:38.370Z,4.00
2018-05-27T02:29:38.979Z,4.00
2018-05-27T02:29:39.570Z,4.00
2018-05-27T02:30:34.074Z,4.00
2018-05-27T02:30:34.648Z,4.00
2018-05-27T02:30:35.246Z,4.00
2018-05-27T02:30:35.853Z,4.00
2018-05-27T02:30:36.448Z,4.00
2018-05-27T02:30:37.046Z,4.00
2018-05-27T02:30:37.647Z,4.00
2018-05-27T02:30:38.247Z,4.00
2018-05-27T02:31:32.751Z,4.00
2018-05-27T02:31:33.327Z,4.00
2018-05-27T02:31:33.923Z,4.00
2018-05-27T02:31:34.527Z,4.00
2018-05-27T02:31:35.123Z,4.00
2018-05-27T02:31:35.726Z,4.00
2018-05-27T02:31:36.324Z,4.00
2018-05-27T02:31:36.924Z,4.00
2018-05-27T02:32:30.404Z,8.00
2018-05-27T02:32:30.978Z,8.00
2018-05-27T02:32:31.575Z,8.00
2018-05-27T02:32:32.179Z,8.00
2018-05-27T02:32:32.779Z,4.00
2018-05-27T02:32:33.381Z,8.00
2018-05-27T02:32:33.976Z,8.00
2018-05-27T02:32:34.581Z,8.00
2018-05-27T02:33:28.059Z,4.00
2018-05-27T02:33:28.629Z,4.00
2018-05-27T02:33:29.228Z,4.00
2018-05-27T02:33:29.831Z,4.00
2018-05-27T02:33:30.430Z,4.00
2018-05-27T02:33:31.026Z,4.00
2018-05-27T02:33:31.626Z,4.00
2018-05-27T02:33:32.226Z,4.00
2018-05-27T02:34:26.734Z,4.00
2018-05-27T02:34:27.333Z,4.00
2018-05-27T02:34:27.903Z,4.00
2018-05-27T02:34:28.506Z,4.00
2018-05-27T02:34:29.103Z,4.00
2018-05-27T02:34:29.701Z,4.00
2018-05-27T02:34:30.308Z,4.00
2018-05-27T02:34:30.901Z,4.00
2018-05-27T02:35:25.405Z,8.00
2018-05-27T02:35:25.978Z,8.00
2018-05-27T02:35:26.586Z,8.00
2018-05-27T02:35:27.181Z,8.00
2018-05-27T02:35:27.779Z,8.00
2018-05-27T02:35:28.378Z,8.00
2018-05-27T02:35:28.977Z,8.00
2018-05-27T02:35:29.577Z,8.00
2018-05-27T02:36:23.058Z,8.00
2018-05-27T02:36:23.632Z,8.00
2018-05-27T02:36:24.230Z,8.00
2018-05-27T02:36:24.837Z,8.00
2018-05-27T02:36:25.431Z,8.00
2018-05-27T02:36:26.030Z,8.00
2018-05-27T02:36:26.629Z,8.00
2018-05-27T02:36:27.232Z,8.00
2018-05-27T02:37:20.714Z,8.00
2018-05-27T02:37:21.283Z,8.00
2018-05-27T02:37:21.884Z,8.00
2018-05-27T02:37:22.485Z,8.00
2018-05-27T02:37:23.081Z,8.00
2018-05-27T02:37:23.686Z,8.00
2018-05-27T02:37:24.282Z,8.00
2018-05-27T02:37:24.881Z,8.00
2018-05-27T02:38:19.385Z,8.00
2018-05-27T02:38:19.958Z,8.00
2018-05-27T02:38:20.559Z,8.00
2018-05-27T02:38:21.161Z,8.00
2018-05-27T02:38:21.757Z,8.00
2018-05-27T02:38:22.358Z,8.00
2018-05-27T02:38:22.958Z,8.00
2018-05-27T02:38:23.558Z,8.00
2018-05-27T02:39:17.037Z,8.00
2018-05-27T02:39:17.609Z,8.00
2018-05-27T02:39:18.210Z,8.00
2018-05-27T02:39:18.811Z,12.00
2018-05-27T02:39:19.409Z,12.00
2018-05-27T02:39:20.009Z,12.00
2018-05-27T02:39:20.609Z,12.00
2018-05-27T02:39:21.211Z,12.00
2018-05-27T02:40:14.688Z,12.00
2018-05-27T02:40:15.261Z,12.00
2018-05-27T02:40:15.862Z,12.00
2018-05-27T02:40:16.465Z,12.00
2018-05-27T02:40:17.061Z,12.00
2018-05-27T02:40:17.661Z,12.00
2018-05-27T02:40:18.276Z,12.00
2018-05-27T02:40:18.861Z,12.00
2018-05-27T02:41:12.341Z,16.00
2018-05-27T02:41:12.916Z,16.00
2018-05-27T02:41:13.513Z,16.00
2018-05-27T02:41:14.119Z,16.00
2018-05-27T02:41:14.712Z,16.00
2018-05-27T02:41:15.315Z,16.00
2018-05-27T02:41:15.913Z,16.00
2018-05-27T02:41:16.517Z,16.00
2018-05-27T02:42:11.015Z,16.00
2018-05-27T02:42:11.589Z,16.00
2018-05-27T02:42:12.187Z,16.00
2018-05-27T02:42:12.791Z,16.00
2018-05-27T02:42:13.388Z,16.00
2018-05-27T02:42:13.987Z,16.00
2018-05-27T02:42:14.587Z,16.00
2018-05-27T02:42:15.189Z,16.00
2018-05-27T02:43:09.692Z,20.00
2018-05-27T02:43:10.268Z,20.00
2018-05-27T02:43:10.868Z,20.00
2018-05-27T02:43:11.467Z,20.00
2018-05-27T02:43:12.067Z,20.00
2018-05-27T02:43:12.666Z,20.00
2018-05-27T02:43:13.266Z,20.00
2018-05-27T02:43:13.867Z,20.00
2018-05-27T02:44:07.343Z,20.00
2018-05-27T02:44:07.917Z,20.00
2018-05-27T02:44:08.521Z,20.00
2018-05-27T02:44:09.119Z,20.00
2018-05-27T02:44:09.718Z,20.00
2018-05-27T02:44:10.318Z,20.00
2018-05-27T02:44:10.916Z,20.00
2018-05-27T02:44:11.518Z,20.00
2018-05-27T02:45:06.020Z,24.00
2018-05-27T02:45:06.590Z,24.00
2018-05-27T02:45:07.191Z,24.00
2018-05-27T02:45:07.796Z,24.00
2018-05-27T02:45:08.391Z,24.00
2018-05-27T02:45:08.991Z,24.00
2018-05-27T02:45:09.590Z,24.00
2018-05-27T02:45:10.192Z,24.00
2018-05-27T02:46:03.671Z,28.00
2018-05-27T02:46:04.249Z,28.00
2018-05-27T02:46:04.844Z,28.00
2018-05-27T02:46:05.447Z,28.00
2018-05-27T02:46:06.044Z,28.00
2018-05-27T02:46:06.643Z,28.00
2018-05-27T02:46:07.244Z,28.00
2018-05-27T02:46:07.842Z,28.00
2018-05-27T02:47:02.346Z,28.00
2018-05-27T02:47:02.936Z,28.00
2018-05-27T02:47:03.529Z,28.00
2018-05-27T02:47:04.119Z,28.00
2018-05-27T02:47:04.718Z,28.00
2018-05-27T02:47:05.320Z,28.00
2018-05-27T02:47:05.918Z,28.00
2018-05-27T02:47:06.525Z,28.00
2018-05-27T02:48:01.022Z,32.00
2018-05-27T02:48:01.598Z,32.00
2018-05-27T02:48:02.192Z,32.00
2018-05-27T02:48:02.793Z,32.00
2018-05-27T02:48:03.392Z,32.00
2018-05-27T02:48:03.992Z,32.00
2018-05-27T02:48:04.594Z,32.00
2018-05-27T02:48:05.191Z,32.00
2018-05-27T02:48:59.705Z,36.00
2018-05-27T02:49:00.269Z,36.00
2018-05-27T02:49:00.871Z,36.00
2018-05-27T02:49:01.476Z,36.00
2018-05-27T02:49:02.067Z,36.00
2018-05-27T02:49:02.667Z,36.00
2018-05-27T02:49:03.268Z,36.00
2018-05-27T02:49:03.870Z,36.00
2018-05-27T02:49:57.349Z,40.00
2018-05-27T02:49:57.934Z,40.00
2018-05-27T02:49:58.526Z,40.00
2018-05-27T02:49:59.124Z,40.00
2018-05-27T02:49:59.723Z,40.00
2018-05-27T02:50:00.321Z,40.00
2018-05-27T02:50:00.922Z,40.00
2018-05-27T02:50:01.522Z,40.00
2018-05-27T02:50:56.031Z,44.00
2018-05-27T02:50:56.597Z,44.00
2018-05-27T02:50:57.197Z,44.00
2018-05-27T02:50:57.800Z,44.00
2018-05-27T02:50:58.396Z,44.00
2018-05-27T02:50:58.997Z,44.00
2018-05-27T02:50:59.597Z,44.00
2018-05-27T02:51:00.196Z,48.00
2018-05-27T02:51:54.707Z,48.00
2018-05-27T02:51:55.278Z,48.00
2018-05-27T02:51:55.873Z,48.00
2018-05-27T02:51:56.479Z,48.00
2018-05-27T02:51:57.073Z,48.00
2018-05-27T02:51:57.672Z,48.00
2018-05-27T02:51:58.273Z,48.00
2018-05-27T02:51:58.873Z,48.00
2018-05-27T02:52:52.357Z,52.00
2018-05-27T02:52:52.938Z,52.00
2018-05-27T02:52:53.532Z,52.00
2018-05-27T02:52:54.134Z,56.00
2018-05-27T02:52:54.743Z,56.00
2018-05-27T02:52:55.327Z,56.00
2018-05-27T02:52:55.933Z,56.00
2018-05-27T02:52:56.526Z,56.00
2018-05-27T02:53:51.032Z,60.00
2018-05-27T02:53:51.602Z,56.00
2018-05-27T02:53:52.201Z,60.00
2018-05-27T02:53:52.809Z,60.00
2018-05-27T02:53:53.405Z,60.00
2018-05-27T02:53:54.001Z,60.00
2018-05-27T02:53:54.604Z,60.00
2018-05-27T02:53:55.204Z,60.00
2018-05-27T02:54:48.688Z,68.00
2018-05-27T02:54:49.255Z,68.00
2018-05-27T02:54:49.856Z,64.00
2018-05-27T02:54:50.455Z,64.00
2018-05-27T02:54:51.056Z,64.00
2018-05-27T02:54:51.660Z,64.00
2018-05-27T02:54:52.256Z,64.00
2018-05-27T02:54:52.855Z,64.00
2018-05-27T02:55:47.362Z,72.00
2018-05-27T02:55:47.931Z,72.00
2018-05-27T02:55:48.532Z,72.00
2018-05-27T02:55:49.140Z,72.00
2018-05-27T02:55:49.733Z,72.00
2018-05-27T02:55:50.330Z,72.00
2018-05-27T02:55:50.929Z,72.00
2018-05-27T02:55:51.530Z,72.00
2018-05-27T02:56:45.014Z,76.00
2018-05-27T02:56:45.582Z,80.00
2018-05-27T02:56:46.190Z,80.00
2018-05-27T02:56:46.793Z,80.00
2018-05-27T02:56:47.381Z,80.00
2018-05-27T02:56:47.981Z,80.00
2018-05-27T02:56:48.585Z,80.00
2018-05-27T02:56:49.181Z,80.00
2018-05-27T02:57:43.687Z,88.00
2018-05-27T02:57:44.258Z,88.00
2018-05-27T02:57:44.859Z,88.00
2018-05-27T02:57:45.458Z,88.00
2018-05-27T02:57:46.058Z,88.00
2018-05-27T02:57:46.657Z,88.00
2018-05-27T02:57:47.257Z,88.00
2018-05-27T02:57:47.856Z,88.00
2018-05-27T02:58:42.362Z,96.00
2018-05-27T02:58:42.936Z,96.00
2018-05-27T02:58:43.532Z,96.00
2018-05-27T02:58:44.135Z,96.00
2018-05-27T02:58:44.733Z,96.00
2018-05-27T02:58:45.333Z,96.00
2018-05-27T02:58:45.933Z,96.00
2018-05-27T02:58:46.539Z,96.00
2018-05-27T02:59:40.019Z,104.00
2018-05-27T02:59:40.585Z,100.00
2018-05-27T02:59:41.187Z,104.00
2018-05-27T02:59:41.786Z,104.00
2018-05-27T02:59:42.384Z,104.00
2018-05-27T02:59:42.987Z,104.00
2018-05-27T02:59:43.586Z,104.00
2018-05-27T02:59:44.185Z,104.00
2018-05-27T03:00:38.691Z,112.00
2018-05-27T03:00:39.262Z,112.00
2018-05-27T03:00:39.860Z,112.00
2018-05-27T03:00:40.464Z,112.00
2018-05-27T03:00:41.078Z,112.00
2018-05-27T03:00:41.665Z,112.00
2018-05-27T03:00:42.261Z,112.00
2018-05-27T03:00:42.861Z,116.00
2018-05-27T03:01:37.366Z,124.00
2018-05-27T03:01:37.936Z,124.00
2018-05-27T03:01:38.539Z,124.00
2018-05-27T03:01:39.141Z,124.00
2018-05-27T03:01:39.736Z,124.00
2018-05-27T03:01:40.336Z,124.00
2018-05-27T03:01:40.937Z,120.00
2018-05-27T03:01:41.538Z,124.00
2018-05-27T03:02:36.043Z,132.00
2018-05-27T03:02:36.612Z,132.00
2018-05-27T03:02:37.211Z,136.00
2018-05-27T03:02:37.817Z,136.00
2018-05-27T03:02:38.412Z,136.00
2018-05-27T03:02:39.011Z,136.00
2018-05-27T03:02:39.611Z,136.00
2018-05-27T03:02:40.212Z,132.00
2018-05-27T03:03:33.695Z,144.00
2018-05-27T03:03:34.264Z,144.00
2018-05-27T03:03:34.865Z,148.00
2018-05-27T03:03:35.465Z,148.00
2018-05-27T03:03:36.064Z,148.00
2018-05-27T03:03:36.668Z,148.00
2018-05-27T03:03:37.267Z,148.00
2018-05-27T03:03:37.864Z,144.00
2018-05-27T03:04:32.370Z,160.00
2018-05-27T03:04:32.939Z,160.00
2018-05-27T03:04:33.541Z,160.00
2018-05-27T03:04:34.141Z,156.00
2018-05-27T03:04:34.740Z,156.00
2018-05-27T03:04:35.340Z,160.00
2018-05-27T03:04:35.938Z,160.00
2018-05-27T03:04:36.539Z,160.00
2018-05-27T03:05:30.024Z,172.00
2018-05-27T03:05:30.592Z,172.00
2018-05-27T03:05:31.192Z,172.00
2018-05-27T03:05:31.794Z,172.00
2018-05-27T03:05:32.392Z,176.00
2018-05-27T03:05:32.991Z,176.00